Main page
METAR-TAF:

METAR-TAF

Airports :

Loreto International Airport

Loreto, Mexico

latitude: 26-01N, longitude: 111-21W, elevation: 15 m

Current weather observation

The report was made 59 minutes ago, at 15:45 UTC
Wind 10 kt from the North/Northeast
Temperature 28°C
Humidity 55%
Pressure 1012 hPa
Visibility: 16.1 km
Clear sky

METAR: MMLT 281545Z 03010KT 10SM SKC 28/18 A2989

Time: 10:44 (16:44 UTC)

Forecast

The report was made 12 hours and 11 minutes ago, at 04:33 UTC
Forecast valid from 28 at 06 UTC to 29 at 06 UTC
Wind 5 kt from the Southeast
Visibility: 10 km
Clear sky
From 28 at 1900 UTC
Wind 10 kt from the Southeast
Visibility: 10 km
Clear sky
From 29 at 0400 UTC
Wind 5 kt from the Southeast
Visibility: 10 km
Clear sky

TAF: MMLT 280433Z 2806/2906 13005KT P6SM SKC FM281900 14010KT P6SM SKC FM290400 14005KT P6SM SKC

Weather observations and forecasts of more than 4000 airports (METAR and TAF reports).

The available stations are represented by yellow and red dots on the map.

Hover mouse over dot to see the name of the station.

Then click to see weather observations and forecasts.

To change the map : click on the green buttons with a black cross to zoom in, on the green button with a dash to zoom out, or on the green arrows for adjacent maps.


METAR-TAF: